sensor_id;sensor_type;location;lat;lon;timestamp;temperature;humidity
11536;DHT22;5824;49.336;8.652;2023-02-13T00:00:07;6.90;1.00
11536;DHT22;5824;49.336;8.652;2023-02-13T00:02:33;6.90;1.00
11536;DHT22;5824;49.336;8.652;2023-02-13T00:04:59;6.90;1.00
11536;DHT22;5824;49.336;8.652;2023-02-13T00:07:24;6.90;1.00
11536;DHT22;5824;49.336;8.652;2023-02-13T00:09:50;6.90;1.00
11536;DHT22;5824;49.336;8.652;2023-02-13T00:12:15;6.90;1.00
11536;DHT22;5824;49.336;8.652;2023-02-13T00:14:41;6.90;1.00
11536;DHT22;5824;49.336;8.652;2023-02-13T00:17:06;6.90;1.00
11536;DHT22;5824;49.336;8.652;2023-02-13T00:19:32;6.90;1.00
11536;DHT22;5824;49.336;8.652;2023-02-13T00:21:57;6.80;1.00
11536;DHT22;5824;49.336;8.652;2023-02-13T00:24:23;6.80;1.00
11536;DHT22;5824;49.336;8.652;2023-02-13T00:26:49;6.70;1.00
11536;DHT22;5824;49.336;8.652;2023-02-13T00:29:14;6.40;1.00
11536;DHT22;5824;49.336;8.652;2023-02-13T00:31:40;6.80;1.00
11536;DHT22;5824;49.336;8.652;2023-02-13T00:34:05;6.80;1.00
11536;DHT22;5824;49.336;8.652;2023-02-13T00:36:31;7.10;1.00
11536;DHT22;5824;49.336;8.652;2023-02-13T00:38:56;6.70;1.00
11536;DHT22;5824;49.336;8.652;2023-02-13T00:41:22;6.70;1.00
11536;DHT22;5824;49.336;8.652;2023-02-13T00:43:48;6.70;1.00
11536;DHT22;5824;49.336;8.652;2023-02-13T00:46:15;6.60;1.00
11536;DHT22;5824;49.336;8.652;2023-02-13T00:51:07;6.60;1.00
11536;DHT22;5824;49.336;8.652;2023-02-13T00:53:34;6.60;1.00
11536;DHT22;5824;49.336;8.652;2023-02-13T00:56:00;6.60;1.00
11536;DHT22;5824;49.336;8.652;2023-02-13T00:58:26;6.60;1.00
11536;DHT22;5824;49.336;8.652;2023-02-13T01:00:52;6.60;1.00
11536;DHT22;5824;49.336;8.652;2023-02-13T01:03:19;6.60;1.00
11536;DHT22;5824;49.336;8.652;2023-02-13T01:06:05;6.50;1.00
11536;DHT22;5824;49.336;8.652;2023-02-13T01:08:30;6.50;1.00
11536;DHT22;5824;49.336;8.652;2023-02-13T01:10:56;6.90;1.00
11536;DHT22;5824;49.336;8.652;2023-02-13T01:13:21;6.60;1.00
11536;DHT22;5824;49.336;8.652;2023-02-13T01:15:48;6.60;1.00
11536;DHT22;5824;49.336;8.652;2023-02-13T01:18:15;6.60;1.00
11536;DHT22;5824;49.336;8.652;2023-02-13T01:20:42;6.60;1.00
11536;DHT22;5824;49.336;8.652;2023-02-13T01:23:09;6.60;1.00
11536;DHT22;5824;49.336;8.652;2023-02-13T01:25:38;6.50;1.00
11536;DHT22;5824;49.336;8.652;2023-02-13T01:28:03;6.50;1.00
11536;DHT22;5824;49.336;8.652;2023-02-13T01:30:29;6.60;1.00
11536;DHT22;5824;49.336;8.652;2023-02-13T01:32:54;6.60;1.00
11536;DHT22;5824;49.336;8.652;2023-02-13T01:35:20;6.60;1.00
11536;DHT22;5824;49.336;8.652;2023-02-13T01:37:45;6.60;1.00
11536;DHT22;5824;49.336;8.652;2023-02-13T01:40:12;6.60;1.00
11536;DHT22;5824;49.336;8.652;2023-02-13T01:42:38;6.60;1.00
11536;DHT22;5824;49.336;8.652;2023-02-13T01:47:55;6.50;1.00
11536;DHT22;5824;49.336;8.652;2023-02-13T01:50:32;6.40;1.00
11536;DHT22;5824;49.336;8.652;2023-02-13T01:55:36;6.40;1.00
11536;DHT22;5824;49.336;8.652;2023-02-13T01:58:08;6.30;1.00
11536;DHT22;5824;49.336;8.652;2023-02-13T02:00:36;6.30;1.00
11536;DHT22;5824;49.336;8.652;2023-02-13T02:03:13;6.30;1.00
11536;DHT22;5824;49.336;8.652;2023-02-13T02:05:41;6.00;1.00
11536;DHT22;5824;49.336;8.652;2023-02-13T02:08:09;5.80;1.00
11536;DHT22;5824;49.336;8.652;2023-02-13T02:10:35;5.70;1.00
11536;DHT22;5824;49.336;8.652;2023-02-13T02:13:13;5.60;1.00
11536;DHT22;5824;49.336;8.652;2023-02-13T02:15:40;5.50;1.00
11536;DHT22;5824;49.336;8.652;2023-02-13T02:18:16;5.70;1.00
11536;DHT22;5824;49.336;8.652;2023-02-13T02:35:32;4.70;1.00
11536;DHT22;5824;49.336;8.652;2023-02-13T02:38:05;4.70;1.00
11536;DHT22;5824;49.336;8.652;2023-02-13T02:46:01;4.60;1.00
11536;DHT22;5824;49.336;8.652;2023-02-13T02:48:54;4.70;1.00
11536;DHT22;5824;49.336;8.652;2023-02-13T02:54:33;4.40;1.00
11536;DHT22;5824;49.336;8.652;2023-02-13T02:57:30;4.40;1.00
11536;DHT22;5824;49.336;8.652;2023-02-13T03:00:18;4.50;1.00
11536;DHT22;5824;49.336;8.652;2023-02-13T03:03:14;4.20;1.00
11536;DHT22;5824;49.336;8.652;2023-02-13T03:06:01;4.80;1.00
11536;DHT22;5824;49.336;8.652;2023-02-13T03:08:40;4.10;1.00
11536;DHT22;5824;49.336;8.652;2023-02-13T03:11:26;4.50;1.00
11536;DHT22;5824;49.336;8.652;2023-02-13T03:14:13;3.80;1.00
11536;DHT22;5824;49.336;8.652;2023-02-13T03:16:41;4.20;1.00
11536;DHT22;5824;49.336;8.652;2023-02-13T03:20:02;3.80;1.00
11536;DHT22;5824;49.336;8.652;2023-02-13T03:23:06;3.60;1.00
11536;DHT22;5824;49.336;8.652;2023-02-13T03:28:24;3.40;1.00
11536;DHT22;5824;49.336;8.652;2023-02-13T03:34:01;3.20;1.00
11536;DHT22;5824;49.336;8.652;2023-02-13T03:36:43;3.20;1.00
11536;DHT22;5824;49.336;8.652;2023-02-13T03:42:16;3.10;1.00
11536;DHT22;5824;49.336;8.652;2023-02-13T03:44:47;3.00;1.00
11536;DHT22;5824;49.336;8.652;2023-02-13T03:47:35;3.50;1.00
11536;DHT22;5824;49.336;8.652;2023-02-13T03:50:02;3.00;1.00
11536;DHT22;5824;49.336;8.652;2023-02-13T03:52:40;2.80;1.00
11536;DHT22;5824;49.336;8.652;2023-02-13T03:58:07;2.80;1.00
11536;DHT22;5824;49.336;8.652;2023-02-13T04:00:54;2.80;1.00
11536;DHT22;5824;49.336;8.652;2023-02-13T04:03:44;2.90;1.00
11536;DHT22;5824;49.336;8.652;2023-02-13T04:06:15;2.80;1.00
11536;DHT22;5824;49.336;8.652;2023-02-13T04:08:42;2.70;1.00
11536;DHT22;5824;49.336;8.652;2023-02-13T04:11:19;2.70;1.00
11536;DHT22;5824;49.336;8.652;2023-02-13T04:14:00;2.70;1.00
11536;DHT22;5824;49.336;8.652;2023-02-13T04:16:48;2.70;1.00
11536;DHT22;5824;49.336;8.652;2023-02-13T04:19:15;2.70;1.00
11536;DHT22;5824;49.336;8.652;2023-02-13T04:21:41;3.20;1.00
11536;DHT22;5824;49.336;8.652;2023-02-13T04:24:07;3.20;1.00
11536;DHT22;5824;49.336;8.652;2023-02-13T04:26:39;3.40;1.00
11536;DHT22;5824;49.336;8.652;2023-02-13T04:29:06;2.60;1.00
11536;DHT22;5824;49.336;8.652;2023-02-13T04:31:31;2.70;1.00
11536;DHT22;5824;49.336;8.652;2023-02-13T04:33:57;2.50;1.00
11536;DHT22;5824;49.336;8.652;2023-02-13T04:36:23;2.60;1.00
11536;DHT22;5824;49.336;8.652;2023-02-13T04:38:49;2.50;1.00
11536;DHT22;5824;49.336;8.652;2023-02-13T04:41:14;2.90;1.00
11536;DHT22;5824;49.336;8.652;2023-02-13T04:43:40;2.40;1.00
11536;DHT22;5824;49.336;8.652;2023-02-13T04:46:06;2.30;1.00
11536;DHT22;5824;49.336;8.652;2023-02-13T04:48:31;2.60;1.00
11536;DHT22;5824;49.336;8.652;2023-02-13T04:50:57;2.20;1.00
11536;DHT22;5824;49.336;8.652;2023-02-13T04:53:22;2.20;1.00
11536;DHT22;5824;49.336;8.652;2023-02-13T04:55:48;2.20;1.00
11536;DHT22;5824;49.336;8.652;2023-02-13T04:58:13;1.90;1.00
11536;DHT22;5824;49.336;8.652;2023-02-13T05:00:39;1.90;1.00
11536;DHT22;5824;49.336;8.652;2023-02-13T05:03:09;1.90;1.00
11536;DHT22;5824;49.336;8.652;2023-02-13T05:05:35;1.90;1.00
11536;DHT22;5824;49.336;8.652;2023-02-13T05:08:01;1.80;1.00
11536;DHT22;5824;49.336;8.652;2023-02-13T05:10:27;1.80;1.00
11536;DHT22;5824;49.336;8.652;2023-02-13T05:12:53;1.80;1.00
11536;DHT22;5824;49.336;8.652;2023-02-13T05:15:19;1.80;1.00
11536;DHT22;5824;49.336;8.652;2023-02-13T05:17:45;2.10;1.00
11536;DHT22;5824;49.336;8.652;2023-02-13T05:20:12;1.70;1.00
11536;DHT22;5824;49.336;8.652;2023-02-13T05:22:43;1.60;1.00
11536;DHT22;5824;49.336;8.652;2023-02-13T05:25:28;1.60;1.00
11536;DHT22;5824;49.336;8.652;2023-02-13T05:27:54;1.60;1.00
11536;DHT22;5824;49.336;8.652;2023-02-13T05:30:19;1.80;1.00
11536;DHT22;5824;49.336;8.652;2023-02-13T05:32:45;1.50;1.00
11536;DHT22;5824;49.336;8.652;2023-02-13T05:35:10;1.80;1.00
11536;DHT22;5824;49.336;8.652;2023-02-13T05:37:36;2.00;1.00
11536;DHT22;5824;49.336;8.652;2023-02-13T05:40:02;1.40;1.00
11536;DHT22;5824;49.336;8.652;2023-02-13T05:42:27;1.50;1.00
11536;DHT22;5824;49.336;8.652;2023-02-13T05:44:53;1.30;1.00
11536;DHT22;5824;49.336;8.652;2023-02-13T05:47:18;1.50;1.00
11536;DHT22;5824;49.336;8.652;2023-02-13T05:49:44;1.30;1.00
11536;DHT22;5824;49.336;8.652;2023-02-13T05:52:09;1.70;1.00
11536;DHT22;5824;49.336;8.652;2023-02-13T05:54:35;1.20;1.00
11536;DHT22;5824;49.336;8.652;2023-02-13T05:57:02;1.40;2.00
11536;DHT22;5824;49.336;8.652;2023-02-13T05:59:28;1.40;3.20
11536;DHT22;5824;49.336;8.652;2023-02-13T06:01:53;1.60;4.50
11536;DHT22;5824;49.336;8.652;2023-02-13T06:04:19;1.60;1.10
11536;DHT22;5824;49.336;8.652;2023-02-13T06:06:44;2.10;17.90
11536;DHT22;5824;49.336;8.652;2023-02-13T06:09:10;1.90;13.40
11536;DHT22;5824;49.336;8.652;2023-02-13T06:11:36;1.90;9.90
11536;DHT22;5824;49.336;8.652;2023-02-13T06:14:01;2.00;5.40
11536;DHT22;5824;49.336;8.652;2023-02-13T06:16:27;2.50;6.20
11536;DHT22;5824;49.336;8.652;2023-02-13T06:18:54;2.40;12.10
11536;DHT22;5824;49.336;8.652;2023-02-13T06:21:20;2.40;9.60
11536;DHT22;5824;49.336;8.652;2023-02-13T06:23:45;2.10;6.10
11536;DHT22;5824;49.336;8.652;2023-02-13T06:26:11;2.10;5.10
11536;DHT22;5824;49.336;8.652;2023-02-13T06:28:36;2.40;7.70
11536;DHT22;5824;49.336;8.652;2023-02-13T06:31:02;2.10;6.50
11536;DHT22;5824;49.336;8.652;2023-02-13T06:33:27;2.30;3.70
11536;DHT22;5824;49.336;8.652;2023-02-13T06:35:53;2.20;6.90
11536;DHT22;5824;49.336;8.652;2023-02-13T06:38:19;2.30;7.70
11536;DHT22;5824;49.336;8.652;2023-02-13T06:40:46;2.30;11.30
11536;DHT22;5824;49.336;8.652;2023-02-13T06:43:12;2.60;15.40
11536;DHT22;5824;49.336;8.652;2023-02-13T06:45:38;2.80;18.70
11536;DHT22;5824;49.336;8.652;2023-02-13T06:48:04;3.10;16.70
11536;DHT22;5824;49.336;8.652;2023-02-13T06:50:30;2.70;4.60
11536;DHT22;5824;49.336;8.652;2023-02-13T06:52:55;2.60;1.00
11536;DHT22;5824;49.336;8.652;2023-02-13T06:55:21;2.90;1.00
11536;DHT22;5824;49.336;8.652;2023-02-13T06:57:47;2.30;1.00
11536;DHT22;5824;49.336;8.652;2023-02-13T07:00:15;2.20;1.00
11536;DHT22;5824;49.336;8.652;2023-02-13T07:02:43;2.00;1.00
11536;DHT22;5824;49.336;8.652;2023-02-13T07:05:09;2.10;1.00
11536;DHT22;5824;49.336;8.652;2023-02-13T07:07:36;2.20;1.00
11536;DHT22;5824;49.336;8.652;2023-02-13T07:10:04;2.10;1.00
11536;DHT22;5824;49.336;8.652;2023-02-13T07:12:32;1.70;1.00
11536;DHT22;5824;49.336;8.652;2023-02-13T07:14:58;2.10;1.00
11536;DHT22;5824;49.336;8.652;2023-02-13T07:17:23;2.20;1.00
11536;DHT22;5824;49.336;8.652;2023-02-13T07:19:50;2.00;1.00
11536;DHT22;5824;49.336;8.652;2023-02-13T07:22:16;2.00;1.00
11536;DHT22;5824;49.336;8.652;2023-02-13T07:24:41;2.50;1.00
11536;DHT22;5824;49.336;8.652;2023-02-13T07:27:06;2.10;1.00
11536;DHT22;5824;49.336;8.652;2023-02-13T07:29:32;2.10;1.00
11536;DHT22;5824;49.336;8.652;2023-02-13T07:31:57;2.50;1.00
11536;DHT22;5824;49.336;8.652;2023-02-13T07:34:23;2.50;1.00
11536;DHT22;5824;49.336;8.652;2023-02-13T07:36:48;2.20;1.00
11536;DHT22;5824;49.336;8.652;2023-02-13T07:39:14;2.30;1.00
11536;DHT22;5824;49.336;8.652;2023-02-13T07:41:39;2.30;1.00
11536;DHT22;5824;49.336;8.652;2023-02-13T07:44:05;2.90;1.00
11536;DHT22;5824;49.336;8.652;2023-02-13T07:46:30;2.50;1.00
11536;DHT22;5824;49.336;8.652;2023-02-13T07:48:56;2.70;1.00
11536;DHT22;5824;49.336;8.652;2023-02-13T07:51:21;2.90;1.00
11536;DHT22;5824;49.336;8.652;2023-02-13T07:53:52;3.00;1.00
11536;DHT22;5824;49.336;8.652;2023-02-13T07:56:18;3.20;1.00
11536;DHT22;5824;49.336;8.652;2023-02-13T07:58:44;3.40;1.00
11536;DHT22;5824;49.336;8.652;2023-02-13T08:01:12;3.80;1.00
11536;DHT22;5824;49.336;8.652;2023-02-13T08:03:38;3.70;1.00
11536;DHT22;5824;49.336;8.652;2023-02-13T08:06:04;3.80;1.00
11536;DHT22;5824;49.336;8.652;2023-02-13T08:08:30;3.70;1.00
11536;DHT22;5824;49.336;8.652;2023-02-13T08:10:56;3.80;1.00
11536;DHT22;5824;49.336;8.652;2023-02-13T08:13:40;3.90;1.00
11536;DHT22;5824;49.336;8.652;2023-02-13T08:16:06;4.00;1.00
11536;DHT22;5824;49.336;8.652;2023-02-13T08:18:32;4.10;1.00
11536;DHT22;5824;49.336;8.652;2023-02-13T08:20:57;4.30;1.00
11536;DHT22;5824;49.336;8.652;2023-02-13T08:23:25;4.50;1.00
11536;DHT22;5824;49.336;8.652;2023-02-13T08:25:51;4.80;1.00
11536;DHT22;5824;49.336;8.652;2023-02-13T08:28:16;5.10;1.00
11536;DHT22;5824;49.336;8.652;2023-02-13T08:30:42;5.20;1.00
11536;DHT22;5824;49.336;8.652;2023-02-13T08:33:07;5.40;1.00
11536;DHT22;5824;49.336;8.652;2023-02-13T08:35:33;5.60;1.00
11536;DHT22;5824;49.336;8.652;2023-02-13T08:38:03;5.70;1.00
11536;DHT22;5824;49.336;8.652;2023-02-13T08:40:29;5.80;1.00
11536;DHT22;5824;49.336;8.652;2023-02-13T08:43:04;5.90;1.00
11536;DHT22;5824;49.336;8.652;2023-02-13T08:45:31;6.10;1.00
11536;DHT22;5824;49.336;8.652;2023-02-13T08:48:00;6.10;1.00
11536;DHT22;5824;49.336;8.652;2023-02-13T08:50:28;6.20;1.00
11536;DHT22;5824;49.336;8.652;2023-02-13T08:52:53;6.20;1.00
11536;DHT22;5824;49.336;8.652;2023-02-13T08:55:19;6.30;1.00
11536;DHT22;5824;49.336;8.652;2023-02-13T08:57:45;6.40;1.00
11536;DHT22;5824;49.336;8.652;2023-02-13T09:00:10;6.50;1.00
11536;DHT22;5824;49.336;8.652;2023-02-13T09:02:36;6.60;1.00
11536;DHT22;5824;49.336;8.652;2023-02-13T09:05:02;6.80;1.00
11536;DHT22;5824;49.336;8.652;2023-02-13T09:07:27;6.90;1.00
11536;DHT22;5824;49.336;8.652;2023-02-13T09:09:53;7.10;1.00
11536;DHT22;5824;49.336;8.652;2023-02-13T09:12:18;7.60;1.00
11536;DHT22;5824;49.336;8.652;2023-02-13T09:14:44;7.60;1.00
11536;DHT22;5824;49.336;8.652;2023-02-13T09:17:11;8.10;1.00
11536;DHT22;5824;49.336;8.652;2023-02-13T09:19:36;10.10;1.00
11536;DHT22;5824;49.336;8.652;2023-02-13T09:22:02;12.80;1.00
11536;DHT22;5824;49.336;8.652;2023-02-13T09:24:27;15.10;1.00
11536;DHT22;5824;49.336;8.652;2023-02-13T09:26:53;17.20;1.00
11536;DHT22;5824;49.336;8.652;2023-02-13T09:29:20;18.60;1.00
11536;DHT22;5824;49.336;8.652;2023-02-13T09:31:46;20.10;1.00
11536;DHT22;5824;49.336;8.652;2023-02-13T09:34:12;20.80;1.00
11536;DHT22;5824;49.336;8.652;2023-02-13T09:36:38;21.30;1.00
11536;DHT22;5824;49.336;8.652;2023-02-13T09:39:03;20.50;1.00
11536;DHT22;5824;49.336;8.652;2023-02-13T09:41:36;20.80;1.00
11536;DHT22;5824;49.336;8.652;2023-02-13T09:44:05;21.80;1.00
11536;DHT22;5824;49.336;8.652;2023-02-13T09:46:37;22.00;1.00
11536;DHT22;5824;49.336;8.652;2023-02-13T09:49:10;22.00;1.00
11536;DHT22;5824;49.336;8.652;2023-02-13T09:51:37;22.00;1.00
11536;DHT22;5824;49.336;8.652;2023-02-13T09:54:07;22.10;1.00
11536;DHT22;5824;49.336;8.652;2023-02-13T09:57:04;21.50;1.00
11536;DHT22;5824;49.336;8.652;2023-02-13T10:02:24;22.10;1.00
11536;DHT22;5824;49.336;8.652;2023-02-13T10:05:18;22.20;1.00
11536;DHT22;5824;49.336;8.652;2023-02-13T10:07:56;21.90;1.00
11536;DHT22;5824;49.336;8.652;2023-02-13T10:10:50;22.80;1.00
11536;DHT22;5824;49.336;8.652;2023-02-13T10:19:02;22.40;1.00
11536;DHT22;5824;49.336;8.652;2023-02-13T10:21:33;23.00;1.00
11536;DHT22;5824;49.336;8.652;2023-02-13T10:24:01;23.40;1.00
11536;DHT22;5824;49.336;8.652;2023-02-13T10:26:34;23.90;1.00
11536;DHT22;5824;49.336;8.652;2023-02-13T10:32:09;25.10;1.00
11536;DHT22;5824;49.336;8.652;2023-02-13T10:34:42;22.90;1.00
11536;DHT22;5824;49.336;8.652;2023-02-13T10:37:17;22.50;1.00
11536;DHT22;5824;49.336;8.652;2023-02-13T10:39:46;22.60;1.00
11536;DHT22;5824;49.336;8.652;2023-02-13T10:50:20;23.20;1.00
11536;DHT22;5824;49.336;8.652;2023-02-13T10:58:46;24.30;1.00
11536;DHT22;5824;49.336;8.652;2023-02-13T11:04:18;24.00;1.00
11536;DHT22;5824;49.336;8.652;2023-02-13T11:06:54;23.80;1.00
11536;DHT22;5824;49.336;8.652;2023-02-13T11:09:20;24.20;1.00
11536;DHT22;5824;49.336;8.652;2023-02-13T11:11:46;24.80;1.00
11536;DHT22;5824;49.336;8.652;2023-02-13T11:14:20;25.60;1.00
11536;DHT22;5824;49.336;8.652;2023-02-13T11:16:53;25.40;1.00
11536;DHT22;5824;49.336;8.652;2023-02-13T11:21:54;25.70;1.00
11536;DHT22;5824;49.336;8.652;2023-02-13T11:24:26;26.70;1.00
11536;DHT22;5824;49.336;8.652;2023-02-13T11:27:15;26.50;1.00
11536;DHT22;5824;49.336;8.652;2023-02-13T11:29:55;25.50;1.00
11536;DHT22;5824;49.336;8.652;2023-02-13T11:32:25;25.50;1.00
11536;DHT22;5824;49.336;8.652;2023-02-13T11:34:51;25.50;1.00
11536;DHT22;5824;49.336;8.652;2023-02-13T11:37:25;26.20;1.00
11536;DHT22;5824;49.336;8.652;2023-02-13T11:39:53;26.90;1.00
11536;DHT22;5824;49.336;8.652;2023-02-13T11:45:31;26.20;1.00
11536;DHT22;5824;49.336;8.652;2023-02-13T11:47:42;26.10;1.00
11536;DHT22;5824;49.336;8.652;2023-02-13T11:50:27;24.70;1.00
11536;DHT22;5824;49.336;8.652;2023-02-13T11:52:57;24.50;1.00
11536;DHT22;5824;49.336;8.652;2023-02-13T11:55:35;24.20;1.00
11536;DHT22;5824;49.336;8.652;2023-02-13T11:58:23;25.10;1.00
11536;DHT22;5824;49.336;8.652;2023-02-13T12:03:42;25.60;1.00
11536;DHT22;5824;49.336;8.652;2023-02-13T12:08:37;26.90;1.00
11536;DHT22;5824;49.336;8.652;2023-02-13T12:13:41;27.50;1.00
11536;DHT22;5824;49.336;8.652;2023-02-13T12:16:40;27.80;1.00
11536;DHT22;5824;49.336;8.652;2023-02-13T12:19:13;27.90;1.00
11536;DHT22;5824;49.336;8.652;2023-02-13T12:30:29;27.90;1.00
11536;DHT22;5824;49.336;8.652;2023-02-13T12:33:32;28.40;1.00
11536;DHT22;5824;49.336;8.652;2023-02-13T12:41:20;32.10;1.00
11536;DHT22;5824;49.336;8.652;2023-02-13T12:44:04;32.60;1.00
11536;DHT22;5824;49.336;8.652;2023-02-13T12:47:09;31.40;1.00
11536;DHT22;5824;49.336;8.652;2023-02-13T12:52:33;30.70;1.00
11536;DHT22;5824;49.336;8.652;2023-02-13T13:03:53;32.00;1.00
11536;DHT22;5824;49.336;8.652;2023-02-13T13:06:34;31.90;1.00
11536;DHT22;5824;49.336;8.652;2023-02-13T13:09:21;32.50;1.00
11536;DHT22;5824;49.336;8.652;2023-02-13T13:14:59;33.00;1.00
11536;DHT22;5824;49.336;8.652;2023-02-13T13:20:27;31.70;1.00
11536;DHT22;5824;49.336;8.652;2023-02-13T13:22:56;31.30;1.00
11536;DHT22;5824;49.336;8.652;2023-02-13T13:27:58;31.60;1.00
11536;DHT22;5824;49.336;8.652;2023-02-13T13:30:31;31.20;1.00
11536;DHT22;5824;49.336;8.652;2023-02-13T13:33:04;29.20;1.00
11536;DHT22;5824;49.336;8.652;2023-02-13T13:35:33;27.10;1.00
11536;DHT22;5824;49.336;8.652;2023-02-13T13:38:33;25.20;1.00
11536;DHT22;5824;49.336;8.652;2023-02-13T13:47:10;19.70;1.00
11536;DHT22;5824;49.336;8.652;2023-02-13T13:49:53;18.80;1.00
11536;DHT22;5824;49.336;8.652;2023-02-13T13:52:26;18.30;1.00
11536;DHT22;5824;49.336;8.652;2023-02-13T13:54:52;18.30;1.00
11536;DHT22;5824;49.336;8.652;2023-02-13T14:00:00;18.20;1.00
11536;DHT22;5824;49.336;8.652;2023-02-13T14:05:20;17.50;1.00
11536;DHT22;5824;49.336;8.652;2023-02-13T14:07:49;17.20;1.00
11536;DHT22;5824;49.336;8.652;2023-02-13T14:20:50;16.10;1.00
11536;DHT22;5824;49.336;8.652;2023-02-13T14:25:49;15.60;1.00
11536;DHT22;5824;49.336;8.652;2023-02-13T14:28:24;15.50;1.00
11536;DHT22;5824;49.336;8.652;2023-02-13T14:30:51;15.30;1.00
11536;DHT22;5824;49.336;8.652;2023-02-13T14:33:27;15.00;1.00
11536;DHT22;5824;49.336;8.652;2023-02-13T14:36:16;15.00;1.00
11536;DHT22;5824;49.336;8.652;2023-02-13T14:38:57;14.90;1.00
11536;DHT22;5824;49.336;8.652;2023-02-13T14:41:43;15.00;1.00
11536;DHT22;5824;49.336;8.652;2023-02-13T14:46:48;15.10;1.00
11536;DHT22;5824;49.336;8.652;2023-02-13T14:49:29;15.20;1.00
11536;DHT22;5824;49.336;8.652;2023-02-13T14:52:05;15.20;1.00
11536;DHT22;5824;49.336;8.652;2023-02-13T14:54:50;15.10;1.00
11536;DHT22;5824;49.336;8.652;2023-02-13T14:57:19;14.90;1.00
11536;DHT22;5824;49.336;8.652;2023-02-13T14:59:48;14.70;1.00
11536;DHT22;5824;49.336;8.652;2023-02-13T15:02:26;14.70;1.00
11536;DHT22;5824;49.336;8.652;2023-02-13T15:05:02;14.50;1.00
11536;DHT22;5824;49.336;8.652;2023-02-13T15:07:34;14.40;1.00
11536;DHT22;5824;49.336;8.652;2023-02-13T15:10:03;14.20;1.00
11536;DHT22;5824;49.336;8.652;2023-02-13T15:12:31;14.20;1.00
11536;DHT22;5824;49.336;8.652;2023-02-13T15:14:59;14.00;1.00
11536;DHT22;5824;49.336;8.652;2023-02-13T15:17:30;13.90;1.00
11536;DHT22;5824;49.336;8.652;2023-02-13T15:20:23;13.80;1.00
11536;DHT22;5824;49.336;8.652;2023-02-13T15:22:51;13.70;1.00
11536;DHT22;5824;49.336;8.652;2023-02-13T15:25:37;13.60;1.00
11536;DHT22;5824;49.336;8.652;2023-02-13T15:28:05;13.60;1.00
11536;DHT22;5824;49.336;8.652;2023-02-13T15:30:34;13.50;1.00
11536;DHT22;5824;49.336;8.652;2023-02-13T15:33:15;13.40;1.00
11536;DHT22;5824;49.336;8.652;2023-02-13T15:35:41;13.40;1.00
11536;DHT22;5824;49.336;8.652;2023-02-13T15:38:31;13.80;1.00
11536;DHT22;5824;49.336;8.652;2023-02-13T15:41:06;13.20;1.00
11536;DHT22;5824;49.336;8.652;2023-02-13T15:43:54;13.20;1.00
11536;DHT22;5824;49.336;8.652;2023-02-13T15:48:49;12.90;1.00
11536;DHT22;5824;49.336;8.652;2023-02-13T15:51:24;12.90;1.00
11536;DHT22;5824;49.336;8.652;2023-02-13T15:53:58;12.80;1.00
11536;DHT22;5824;49.336;8.652;2023-02-13T15:56:24;12.70;1.00
11536;DHT22;5824;49.336;8.652;2023-02-13T15:58:51;12.70;1.00
11536;DHT22;5824;49.336;8.652;2023-02-13T16:01:18;12.60;1.00
11536;DHT22;5824;49.336;8.652;2023-02-13T16:03:50;12.60;1.00
11536;DHT22;5824;49.336;8.652;2023-02-13T16:06:19;12.50;1.00
11536;DHT22;5824;49.336;8.652;2023-02-13T16:08:52;12.40;1.00
11536;DHT22;5824;49.336;8.652;2023-02-13T16:11:21;12.40;1.00
11536;DHT22;5824;49.336;8.652;2023-02-13T16:16:24;12.20;1.00
11536;DHT22;5824;49.336;8.652;2023-02-13T16:18:50;12.10;1.00
11536;DHT22;5824;49.336;8.652;2023-02-13T16:21:24;12.00;1.00
11536;DHT22;5824;49.336;8.652;2023-02-13T16:23:54;11.90;1.00
11536;DHT22;5824;49.336;8.652;2023-02-13T16:26:22;11.90;1.00
11536;DHT22;5824;49.336;8.652;2023-02-13T16:28:47;11.70;1.00
11536;DHT22;5824;49.336;8.652;2023-02-13T16:31:14;11.70;1.00
11536;DHT22;5824;49.336;8.652;2023-02-13T16:33:41;11.50;1.00
11536;DHT22;5824;49.336;8.652;2023-02-13T16:38:38;11.30;1.00
11536;DHT22;5824;49.336;8.652;2023-02-13T16:56:49;10.70;1.00
11536;DHT22;5824;49.336;8.652;2023-02-13T16:59:42;10.60;1.00
11536;DHT22;5824;49.336;8.652;2023-02-13T17:02:24;10.50;1.00
11536;DHT22;5824;49.336;8.652;2023-02-13T17:05:19;10.50;1.00
11536;DHT22;5824;49.336;8.652;2023-02-13T17:07:50;10.50;1.00
11536;DHT22;5824;49.336;8.652;2023-02-13T17:10:26;10.40;1.00
11536;DHT22;5824;49.336;8.652;2023-02-13T17:12:54;10.30;1.00
11536;DHT22;5824;49.336;8.652;2023-02-13T17:15:23;10.20;1.00
11536;DHT22;5824;49.336;8.652;2023-02-13T17:17:49;10.10;1.00
11536;DHT22;5824;49.336;8.652;2023-02-13T17:20:23;10.00;1.00
11536;DHT22;5824;49.336;8.652;2023-02-13T17:22:51;9.90;1.00
11536;DHT22;5824;49.336;8.652;2023-02-13T17:25:20;9.90;1.00
11536;DHT22;5824;49.336;8.652;2023-02-13T17:27:50;10.00;1.00
11536;DHT22;5824;49.336;8.652;2023-02-13T17:30:19;10.00;1.00
11536;DHT22;5824;49.336;8.652;2023-02-13T17:32:46;10.00;1.00
11536;DHT22;5824;49.336;8.652;2023-02-13T17:35:13;10.10;1.00
11536;DHT22;5824;49.336;8.652;2023-02-13T17:37:40;10.10;1.00
11536;DHT22;5824;49.336;8.652;2023-02-13T17:40:06;10.10;1.00
11536;DHT22;5824;49.336;8.652;2023-02-13T17:42:32;10.10;1.00
11536;DHT22;5824;49.336;8.652;2023-02-13T17:44:58;10.10;1.00
11536;DHT22;5824;49.336;8.652;2023-02-13T17:47:25;10.00;1.00
11536;DHT22;5824;49.336;8.652;2023-02-13T17:49:51;10.00;1.00
11536;DHT22;5824;49.336;8.652;2023-02-13T17:52:19;9.90;1.00
11536;DHT22;5824;49.336;8.652;2023-02-13T17:54:46;9.90;1.00
11536;DHT22;5824;49.336;8.652;2023-02-13T17:57:13;9.80;1.00
11536;DHT22;5824;49.336;8.652;2023-02-13T17:59:39;9.80;1.00
11536;DHT22;5824;49.336;8.652;2023-02-13T18:02:11;9.80;1.00
11536;DHT22;5824;49.336;8.652;2023-02-13T18:04:37;9.80;1.00
11536;DHT22;5824;49.336;8.652;2023-02-13T18:07:03;9.70;1.00
11536;DHT22;5824;49.336;8.652;2023-02-13T18:09:28;9.60;1.00
11536;DHT22;5824;49.336;8.652;2023-02-13T18:11:54;9.60;1.00
11536;DHT22;5824;49.336;8.652;2023-02-13T18:14:19;9.50;1.00
11536;DHT22;5824;49.336;8.652;2023-02-13T18:16:45;9.40;1.00
11536;DHT22;5824;49.336;8.652;2023-02-13T18:19:10;9.40;1.00
11536;DHT22;5824;49.336;8.652;2023-02-13T18:21:36;9.40;1.00
11536;DHT22;5824;49.336;8.652;2023-02-13T18:24:01;11.40;1.00
11536;DHT22;5824;49.336;8.652;2023-02-13T18:26:27;9.60;1.00
11536;DHT22;5824;49.336;8.652;2023-02-13T18:28:52;9.30;1.00
11536;DHT22;5824;49.336;8.652;2023-02-13T18:31:18;9.20;1.00
11536;DHT22;5824;49.336;8.652;2023-02-13T18:33:44;9.20;1.00
11536;DHT22;5824;49.336;8.652;2023-02-13T18:36:10;9.20;1.00
11536;DHT22;5824;49.336;8.652;2023-02-13T18:38:36;9.20;1.00
11536;DHT22;5824;49.336;8.652;2023-02-13T18:41:03;9.10;1.00
11536;DHT22;5824;49.336;8.652;2023-02-13T18:43:28;9.10;1.00
11536;DHT22;5824;49.336;8.652;2023-02-13T18:45:54;9.00;1.00
11536;DHT22;5824;49.336;8.652;2023-02-13T18:48:19;9.00;1.00
11536;DHT22;5824;49.336;8.652;2023-02-13T18:50:45;9.00;1.00
11536;DHT22;5824;49.336;8.652;2023-02-13T18:53:11;8.90;1.00
11536;DHT22;5824;49.336;8.652;2023-02-13T18:55:36;8.90;1.00
11536;DHT22;5824;49.336;8.652;2023-02-13T18:58:02;8.80;1.00
11536;DHT22;5824;49.336;8.652;2023-02-13T19:00:28;8.80;1.00
11536;DHT22;5824;49.336;8.652;2023-02-13T19:02:54;8.70;1.00
11536;DHT22;5824;49.336;8.652;2023-02-13T19:05:21;8.70;1.00
11536;DHT22;5824;49.336;8.652;2023-02-13T19:07:47;8.60;1.00
11536;DHT22;5824;49.336;8.652;2023-02-13T19:10:13;8.60;1.00
11536;DHT22;5824;49.336;8.652;2023-02-13T19:12:40;8.50;1.00
11536;DHT22;5824;49.336;8.652;2023-02-13T19:15:06;8.50;1.00
11536;DHT22;5824;49.336;8.652;2023-02-13T19:17:33;7.70;1.00
11536;DHT22;5824;49.336;8.652;2023-02-13T19:19:59;8.40;1.00